< < Back
Terminal Aerodrome Forecast


Current Version              Previous Versions:   1  2  3  4  5  6  7  8  9  

Terminal Aerodrome Forecast

520
FTUS42 KFFC 281143 CCA
TAFCSG
TAF COR
KCSG 281143Z 2812/2912 10006KT P6SM BKN100
     FM281300 14006KT P6SM BKN025
     FM281500 16006KT P6SM VCSH BKN035
      TEMPO 2818/2822 3SM -TSRA BKN015CB
     FM282200 14006KT P6SM SCT040 BKN080
     FM290600 VRB03KT P6SM SCT015 BKN045=

Latest METAR

810
SAUS70 KWBC 291600 RRA
MTRCSG
METAR KCSG 291551Z VRB05KT 10SM CLR 27/17 A3020 RMK AO2 SLP221
T02670172


USA.gov is the U.S. government's official web portal to all federal, state and local government web resources and services.